Time;durP1;ratioP1;P1;durP2;ratioP2;P2;SDS_P1;SDS_P2;PMS_P1;PMS_P2;Temp;Humidity;BMP_temperature;BMP_pressure;BME280_temperature;BME280_humidity;BME280_pressure;Samples;Min_cycle;Max_cycle;Signal;HPM_P1;HPM_P2
2024/01/29 00:01:30;;;;;;;39.05;20.80;;;102.60;2227.20;;;;;;4783832;29;20122;-76
2024/01/29 00:03:55;;;;;;;29.27;15.88;;;102.60;2227.20;;;;;;4779588;29;20433;-77
2024/01/29 00:06:21;;;;;;;27.33;15.30;;;102.50;2227.20;;;;;;4778517;29;20051;-76
2024/01/29 00:08:47;;;;;;;34.00;19.98;;;102.40;2227.20;;;;;;4771334;29;20028;-76
2024/01/29 00:11:13;;;;;;;28.40;16.00;;;102.60;2227.20;;;;;;4774991;29;20113;-76
2024/01/29 00:13:39;;;;;;;23.77;14.10;;;102.50;2227.20;;;;;;4773476;29;20058;-76
2024/01/29 00:16:05;;;;;;;27.88;15.25;;;77.70;2227.20;;;;;;4776967;29;20035;-76
2024/01/29 00:18:31;;;;;;;25.63;15.05;;;77.40;2227.20;;;;;;4769041;29;20051;-75
2024/01/29 00:20:57;;;;;;;30.92;17.35;;;77.50;2227.20;;;;;;4757660;29;20040;-75
2024/01/29 00:23:23;;;;;;;25.15;15.25;;;77.50;2227.20;;;;;;4779919;29;20024;-76
2024/01/29 00:25:49;;;;;;;30.00;16.88;;;77.20;2227.20;;;;;;4756418;29;20043;-75
2024/01/29 00:28:15;;;;;;;32.58;16.33;;;77.00;2227.20;;;;;;4771061;29;20047;-76
2024/01/29 00:30:40;;;;;;;34.55;20.40;;;76.80;2227.20;;;;;;4776595;29;20042;-76
2024/01/29 00:33:06;;;;;;;36.78;22.38;;;76.80;2227.20;;;;;;4758240;30;20509;-78
2024/01/29 00:35:33;;;;;;;27.95;17.08;;;76.80;2227.20;;;;;;4760347;30;20058;-76
2024/01/29 00:37:59;;;;;;;29.75;16.75;;;52.10;2227.20;;;;;;4756467;30;20062;-76
2024/01/29 00:40:25;;;;;;;26.55;15.38;;;52.00;2227.20;;;;;;4781847;30;20107;-77
2024/01/29 00:42:51;;;;;;;30.23;14.60;;;52.10;2227.20;;;;;;4778649;30;20410;-76
2024/01/29 00:45:16;;;;;;;22.17;14.25;;;76.80;2227.20;;;;;;4786772;30;20475;-75
2024/01/29 00:47:42;;;;;;;33.42;17.77;;;76.80;2227.20;;;;;;4784675;30;20039;-76
2024/01/29 00:50:09;;;;;;;34.45;17.23;;;76.90;2227.20;;;;;;4793991;29;20035;-77
2024/01/29 00:52:34;;;;;;;29.90;15.85;;;76.90;2227.20;;;;;;4768710;30;20064;-76
2024/01/29 00:55:00;;;;;;;31.45;20.38;;;52.10;2227.20;;;;;;4772842;30;20111;-76
2024/01/29 00:57:26;;;;;;;23.40;14.85;;;76.90;2227.20;;;;;;4779682;30;20703;-75
2024/01/29 00:59:52;;;;;;;33.15;13.93;;;76.90;2227.20;;;;;;4768486;30;20031;-75
2024/01/29 01:02:18;;;;;;;24.65;12.23;;;76.90;2227.20;;;;;;4752145;30;20040;-76
2024/01/29 01:04:43;;;;;;;22.23;11.52;;;77.00;2227.20;;;;;;4768258;30;20031;-76
2024/01/29 01:07:09;;;;;;;31.67;13.48;;;77.10;2227.20;;;;;;4777295;30;20483;-74
2024/01/29 01:09:35;;;;;;;20.55;11.07;;;77.10;2227.20;;;;;;4760550;30;21027;-75
2024/01/29 01:12:01;;;;;;;25.50;14.07;;;77.00;2227.20;;;;;;4763810;29;20062;-75
2024/01/29 01:14:27;;;;;;;37.90;19.52;;;77.00;2227.20;;;;;;4796159;29;20122;-77
2024/01/29 01:16:52;;;;;;;34.53;21.23;;;76.80;2227.20;;;;;;4790771;29;20082;-75
2024/01/29 01:19:18;;;;;;;32.17;19.23;;;52.00;2227.20;;;;;;4787730;29;20036;-74
2024/01/29 01:21:44;;;;;;;43.33;21.20;;;51.90;2227.20;;;;;;4779149;29;20051;-77
2024/01/29 01:24:11;;;;;;;48.30;24.30;;;51.80;2227.20;;;;;;4778518;29;20058;-78
2024/01/29 01:26:37;;;;;;;51.78;32.90;;;51.90;2227.20;;;;;;4789781;29;20031;-77
2024/01/29 01:29:04;;;;;;;29.58;16.83;;;51.90;2227.20;;;;;;4773915;29;20043;-77
2024/01/29 01:31:30;;;;;;;35.03;15.68;;;51.90;2227.20;;;;;;4773831;30;20043;-78
2024/01/29 01:33:56;;;;;;;28.90;15.20;;;51.90;2227.20;;;;;;4790220;29;20039;-78
2024/01/29 01:36:23;;;;;;;21.83;13.98;;;51.80;2227.20;;;;;;4772345;30;20075;-77
2024/01/29 01:38:48;;;;;;;24.48;14.95;;;51.90;2227.20;;;;;;4789166;29;20035;-77
2024/01/29 01:41:14;;;;;;;32.38;17.80;;;51.90;2227.20;;;;;;4773892;30;20054;-77
2024/01/29 01:43:40;;;;;;;27.50;15.60;;;51.90;2227.20;;;;;;4785618;29;20039;-75
2024/01/29 01:46:06;;;;;;;30.10;15.23;;;51.90;2227.20;;;;;;4784212;29;20031;-77
2024/01/29 01:48:35;;;;;;;28.85;13.45;;;51.80;2227.20;;;;;;4767752;29;20082;-76
2024/01/29 01:51:02;;;;;;;24.83;14.18;;;51.80;2227.20;;;;;;4785107;29;20032;-75
2024/01/29 01:53:31;;;;;;;35.03;24.35;;;51.80;2227.20;;;;;;4787978;29;20065;-76
2024/01/29 01:55:58;;;;;;;36.40;19.83;;;51.80;2227.20;;;;;;4771895;30;20046;-77
2024/01/29 01:58:24;;;;;;;34.63;18.15;;;51.70;2227.20;;;;;;4788503;29;20046;-79
2024/01/29 02:00:51;;;;;;;34.63;19.33;;;51.70;2227.20;;;;;;4795632;29;20095;-77
2024/01/29 02:03:17;;;;;;;25.40;14.73;;;51.60;2227.20;;;;;;4793214;29;20043;-76
2024/01/29 02:05:43;;;;;;;24.38;12.45;;;51.70;2227.20;;;;;;4788501;30;20502;-76
2024/01/29 02:08:09;;;;;;;26.13;14.85;;;51.60;2227.20;;;;;;4787087;29;20031;-76
2024/01/29 02:10:35;;;;;;;18.42;10.43;;;51.60;2227.20;;;;;;4771476;30;20184;-76
2024/01/29 02:13:01;;;;;;;20.85;10.43;;;51.50;2227.20;;;;;;4798715;29;20130;-76
2024/01/29 02:15:26;;;;;;;22.73;11.23;;;51.60;2227.20;;;;;;4794352;29;20109;-77
2024/01/29 02:17:52;;;;;;;17.65;10.80;;;51.80;2227.20;;;;;;4790350;29;20059;-75
2024/01/29 02:20:20;;;;;;;26.52;19.35;;;51.80;2227.20;;;;;;4758265;30;20040;-75
2024/01/29 02:22:46;;;;;;;16.80;9.85;;;51.80;2227.20;;;;;;4785310;29;20038;-77
2024/01/29 02:25:15;;;;;;;16.77;9.38;;;51.80;2227.20;;;;;;4805505;29;20042;-77
2024/01/29 02:27:41;;;;;;;16.70;10.00;;;51.90;2227.20;;;;;;4790962;29;20040;-76
2024/01/29 02:30:08;;;;;;;17.73;8.70;;;51.90;2227.20;;;;;;4787719;29;20039;-77
2024/01/29 02:32:34;;;;;;;18.27;8.90;;;51.90;2227.20;;;;;;4798676;29;20043;-76
2024/01/29 02:35:00;;;;;;;13.13;9.15;;;51.90;2227.20;;;;;;4787493;29;20032;-75
2024/01/29 02:37:43;;;;;;;17.10;8.90;;;51.80;2227.20;;;;;;5108265;27;20414;-77
2024/01/29 02:40:10;;;;;;;18.02;11.27;;;51.70;2227.20;;;;;;5107627;28;20032;-76
2024/01/29 02:42:36;;;;;;;22.70;14.88;;;51.70;2227.20;;;;;;5107809;28;20023;-76
2024/01/29 02:45:03;;;;;;;28.52;15.07;;;51.50;2227.20;;;;;;5108199;28;20027;-76
2024/01/29 02:47:29;;;;;;;36.05;20.80;;;51.50;2227.20;;;;;;5106608;28;20034;-76
2024/01/29 02:49:55;;;;;;;47.03;26.17;;;51.30;2227.20;;;;;;5106978;28;20126;-76
2024/01/29 02:52:21;;;;;;;32.35;20.13;;;26.50;2201.60;;;;;;5106852;28;20023;-76
2024/01/29 02:54:47;;;;;;;25.50;15.18;;;26.50;2201.60;;;;;;5108597;28;20027;-76
2024/01/29 02:57:13;;;;;;;22.30;13.05;;;26.50;2201.60;;;;;;5094739;28;20084;-77
2024/01/29 02:59:38;;;;;;;25.10;13.50;;;51.20;2227.20;;;;;;5108737;28;20016;-77
2024/01/29 03:02:05;;;;;;;21.95;12.73;;;51.20;2227.20;;;;;;5106329;28;20507;-76
2024/01/29 03:04:31;;;;;;;19.52;10.63;;;51.20;2227.20;;;;;;5108702;28;20024;-77
2024/01/29 03:06:57;;;;;;;20.80;11.93;;;51.20;2227.20;;;;;;5106121;28;20035;-76
2024/01/29 03:09:22;;;;;;;20.20;12.05;;;51.20;2227.20;;;;;;5109080;28;20039;-76
2024/01/29 03:11:48;;;;;;;25.30;13.88;;;51.20;2227.20;;;;;;5100435;28;20036;-77
2024/01/29 03:14:20;;;;;;;17.90;8.85;;;51.20;2227.20;;;;;;5100833;28;20036;-76
2024/01/29 03:16:46;;;;;;;14.52;8.60;;;51.30;2227.20;;;;;;5073828;28;20033;-76
2024/01/29 03:19:11;;;;;;;22.35;9.07;;;51.30;2227.20;;;;;;5098251;28;20035;-76
2024/01/29 03:21:37;;;;;;;18.45;8.77;;;51.30;2227.20;;;;;;5099522;28;20039;-76
2024/01/29 03:24:03;;;;;;;14.57;7.78;;;51.40;2227.20;;;;;;5086679;28;20055;-76
2024/01/29 03:26:29;;;;;;;21.42;9.70;;;51.30;2227.20;;;;;;5122636;28;20035;-76
2024/01/29 03:28:55;;;;;;;22.20;12.77;;;51.30;2227.20;;;;;;5106949;28;20093;-78
2024/01/29 03:31:20;;;;;;;25.15;13.82;;;51.20;2227.20;;;;;;5107584;28;20374;-77
2024/01/29 03:33:46;;;;;;;22.02;10.30;;;26.40;2201.60;;;;;;5106529;28;20493;-78
2024/01/29 03:36:12;;;;;;;29.85;15.18;;;26.40;2201.60;;;;;;5091968;28;20512;-76
2024/01/29 03:38:38;;;;;;;21.92;14.35;;;26.30;2201.60;;;;;;5092510;28;20025;-77
2024/01/29 03:41:04;;;;;;;18.92;10.52;;;26.20;2201.60;;;;;;5107138;28;20103;-77
2024/01/29 03:43:30;;;;;;;13.13;8.57;;;26.10;2201.60;;;;;;5107131;28;20050;-76
2024/01/29 03:45:55;;;;;;;15.63;9.27;;;26.20;2201.60;;;;;;5108107;28;20454;-77
2024/01/29 03:48:21;;;;;;;20.35;9.20;;;26.20;2201.60;;;;;;5097709;28;20466;-77
2024/01/29 03:50:47;;;;;;;17.00;10.32;;;26.30;2201.60;;;;;;5104667;28;20032;-79
2024/01/29 03:53:13;;;;;;;13.07;7.82;;;26.30;2201.60;;;;;;5105864;28;20020;-77
2024/01/29 03:55:39;;;;;;;18.35;9.35;;;26.40;2201.60;;;;;;5105932;28;20039;-76
2024/01/29 03:58:11;;;;;;;35.65;19.90;;;26.40;2201.60;;;;;;5105550;28;20032;-76
2024/01/29 04:00:38;;;;;;;24.30;11.75;;;26.40;2201.60;;;;;;5093021;28;20026;-78
2024/01/29 04:03:06;;;;;;;33.70;15.65;;;26.30;2201.60;;;;;;5105872;28;20016;-77
2024/01/29 04:05:33;;;;;;;32.28;17.75;;;26.00;2201.60;;;;;;5107945;28;20043;-77
2024/01/29 04:07:59;;;;;;;25.88;11.50;;;26.00;2201.60;;;;;;5090742;28;20033;-78
2024/01/29 04:10:25;;;;;;;23.02;11.30;;;25.90;2201.60;;;;;;5110043;28;20047;-79
2024/01/29 04:12:50;;;;;;;26.65;13.65;;;26.00;2201.60;;;;;;5097781;28;20029;-77
2024/01/29 04:15:16;;;;;;;19.75;10.48;;;26.00;2201.60;;;;;;5110362;28;20027;-77
2024/01/29 04:17:42;;;;;;;20.45;12.70;;;26.00;2201.60;;;;;;5106436;28;20067;-76
2024/01/29 04:20:08;;;;;;;22.40;12.55;;;26.00;2201.60;;;;;;5106278;28;20039;-77
2024/01/29 04:22:34;;;;;;;24.27;14.10;;;25.90;2201.60;;;;;;5100722;28;20123;-77
2024/01/29 04:25:02;;;;;;;21.65;12.98;;;25.90;2201.60;;;;;;5077476;28;20067;-78
2024/01/29 04:27:41;;;;;;;24.30;14.73;;;25.80;2201.60;;;;;;5095534;28;20085;-77
2024/01/29 04:30:07;;;;;;;20.20;12.23;;;25.80;2201.60;;;;;;5098681;28;20032;-78
2024/01/29 04:32:33;;;;;;;35.15;11.05;;;25.90;2201.60;;;;;;5097765;28;20031;-76
2024/01/29 04:34:59;;;;;;;20.13;10.70;;;25.90;2201.60;;;;;;5095592;28;20040;-77
2024/01/29 04:37:24;;;;;;;19.10;10.93;;;25.90;2201.60;;;;;;5098269;28;20044;-77
2024/01/29 04:39:50;;;;;;;22.27;12.02;;;25.80;2201.60;;;;;;5097719;28;20471;-77
2024/01/29 04:42:17;;;;;;;19.60;9.85;;;25.70;2201.60;;;;;;5094126;28;20035;-78
2024/01/29 04:44:43;;;;;;;38.42;16.52;;;25.70;2201.60;;;;;;5087123;28;20111;-77
2024/01/29 04:47:09;;;;;;;32.75;18.65;;;25.90;2201.60;;;;;;5085935;28;20059;-78
2024/01/29 04:49:35;;;;;;;37.15;20.92;;;26.00;2201.60;;;;;;5096591;28;20028;-77
2024/01/29 04:52:00;;;;;;;30.88;17.52;;;26.10;2201.60;;;;;;5092297;28;20107;-77
2024/01/29 04:54:26;;;;;;;30.23;18.15;;;26.20;2201.60;;;;;;5092387;28;20036;-78
2024/01/29 04:56:52;;;;;;;29.38;17.00;;;26.10;2201.60;;;;;;5093181;28;20542;-77
2024/01/29 04:59:18;;;;;;;41.50;19.77;;;26.20;2201.60;;;;;;5082116;28;20130;-76
2024/01/29 05:01:44;;;;;;;70.20;36.22;;;26.20;2201.60;;;;;;5091236;28;20389;-77
2024/01/29 05:04:10;;;;;;;66.38;33.42;;;26.00;2201.60;;;;;;5092362;28;20043;-78
2024/01/29 05:06:35;;;;;;;61.35;31.70;;;26.20;2201.60;;;;;;5090378;28;20036;-76
2024/01/29 05:09:03;;;;;;;56.83;30.35;;;26.20;2201.60;;;;;;5082586;28;20129;-76
2024/01/29 05:11:29;;;;;;;67.10;31.98;;;26.20;2201.60;;;;;;5093325;28;20462;-77
2024/01/29 05:13:55;;;;;;;39.78;20.85;;;26.20;2201.60;;;;;;5091563;28;20389;-77
2024/01/29 05:16:21;;;;;;;30.15;17.50;;;26.10;2201.60;;;;;;5092951;28;20038;-77
2024/01/29 05:18:47;;;;;;;31.30;18.55;;;26.10;2201.60;;;;;;5083020;28;20052;-76
2024/01/29 05:21:13;;;;;;;39.13;20.90;;;26.10;2201.60;;;;;;5084694;28;20050;-76
2024/01/29 05:23:39;;;;;;;42.45;22.95;;;26.20;2201.60;;;;;;5079526;28;20095;-76
2024/01/29 05:26:05;;;;;;;47.45;25.67;;;26.30;2201.60;;;;;;5092370;28;20106;-76
2024/01/29 05:28:31;;;;;;;45.10;26.25;;;26.30;2201.60;;;;;;5085749;28;20473;-77
2024/01/29 05:30:56;;;;;;;39.65;22.70;;;26.30;2201.60;;;;;;5083558;28;20393;-77
2024/01/29 05:33:22;;;;;;;57.50;35.28;;;26.30;2201.60;;;;;;5091366;28;20028;-77
2024/01/29 05:35:48;;;;;;;44.35;26.00;;;26.30;2201.60;;;;;;5089986;28;20143;-76
2024/01/29 05:38:14;;;;;;;47.45;25.63;;;26.30;2201.60;;;;;;5077614;28;20024;-76
2024/01/29 05:40:39;;;;;;;48.10;25.42;;;26.20;2201.60;;;;;;5092186;28;20028;-75
2024/01/29 05:43:05;;;;;;;44.63;25.58;;;26.20;2201.60;;;;;;5076762;28;20017;-77
2024/01/29 05:45:31;;;;;;;38.97;22.52;;;26.20;2201.60;;;;;;5079106;28;20077;-75
2024/01/29 05:47:57;;;;;;;41.80;24.27;;;26.20;2201.60;;;;;;5091201;28;20054;-76
2024/01/29 05:50:22;;;;;;;44.17;27.08;;;26.20;2201.60;;;;;;5092096;28;20024;-76
2024/01/29 05:52:48;;;;;;;62.50;31.42;;;26.20;2201.60;;;;;;5091176;28;20462;-77
2024/01/29 05:55:14;;;;;;;42.63;25.38;;;26.20;2201.60;;;;;;5090582;28;20388;-75
2024/01/29 05:57:40;;;;;;;30.75;18.75;;;26.20;2201.60;;;;;;5075992;28;20445;-77
2024/01/29 06:00:09;;;;;;;87.18;47.22;;;26.20;2201.60;;;;;;5089889;28;20067;-77
2024/01/29 06:02:43;;;;;;;272.27;164.43;;;26.10;2201.60;;;;;;5089179;28;20542;-77
2024/01/29 06:05:13;;;;;;;254.90;155.82;;;26.20;2201.60;;;;;;5091043;28;20042;-77
2024/01/29 06:07:39;;;;;;;76.70;42.55;;;26.20;2201.60;;;;;;5090642;28;20051;-76
2024/01/29 06:10:08;;;;;;;56.35;33.10;;;26.20;2201.60;;;;;;5091648;28;20024;-76
2024/01/29 06:12:34;;;;;;;45.25;25.30;;;26.20;2201.60;;;;;;5089519;28;20017;-76
2024/01/29 06:15:00;;;;;;;34.00;17.23;;;26.20;2201.60;;;;;;5089570;28;20398;-76
2024/01/29 06:17:26;;;;;;;26.13;15.30;;;26.00;2201.60;;;;;;5089442;28;20032;-76
2024/01/29 06:19:52;;;;;;;41.47;17.48;;;26.20;2201.60;;;;;;5090062;28;20024;-77
2024/01/29 06:22:18;;;;;;;26.88;15.05;;;26.40;2201.60;;;;;;5089901;28;20086;-77
2024/01/29 06:24:44;;;;;;;26.42;15.02;;;26.50;2201.60;;;;;;5083959;28;20497;-76
2024/01/29 06:27:09;;;;;;;47.30;23.42;;;51.30;2227.20;;;;;;5079770;28;20056;-76
2024/01/29 06:29:35;;;;;;;55.58;26.88;;;51.50;2227.20;;;;;;5088700;28;20044;-76
2024/01/29 06:32:01;;;;;;;50.00;24.88;;;51.60;2227.20;;;;;;5090294;28;20039;-76
2024/01/29 06:34:27;;;;;;;24.73;13.82;;;51.70;2227.20;;;;;;5083496;28;20475;-76
2024/01/29 06:36:56;;;;;;;29.50;14.50;;;51.70;2227.20;;;;;;5080961;28;20060;-75
2024/01/29 06:39:21;;;;;;;22.65;14.82;;;51.50;2227.20;;;;;;5090250;28;20028;-76
2024/01/29 06:41:47;;;;;;;30.38;16.70;;;51.60;2227.20;;;;;;5090990;28;20028;-76
2024/01/29 06:44:13;;;;;;;24.58;15.73;;;51.80;2227.20;;;;;;5089821;28;20028;-75
2024/01/29 06:46:39;;;;;;;26.13;14.00;;;51.90;2227.20;;;;;;5090767;28;20024;-76
2024/01/29 06:49:06;;;;;;;34.33;19.98;;;51.90;2227.20;;;;;;5090194;28;20061;-77
2024/01/29 06:51:33;;;;;;;30.98;19.73;;;52.10;2227.20;;;;;;5084026;28;20054;-76
2024/01/29 06:54:00;;;;;;;27.00;14.27;;;52.00;2227.20;;;;;;5082876;28;20029;-76
2024/01/29 06:56:27;;;;;;;48.75;26.98;;;51.90;2227.20;;;;;;5088112;28;20127;-76
2024/01/29 06:58:53;;;;;;;29.95;16.48;;;51.80;2227.20;;;;;;5093249;28;20502;-77
2024/01/29 07:01:20;;;;;;;33.65;18.95;;;51.80;2227.20;;;;;;5091030;28;20036;-76
2024/01/29 07:03:46;;;;;;;31.67;17.60;;;51.80;2227.20;;;;;;5091506;28;20020;-77
2024/01/29 07:06:12;;;;;;;28.58;17.30;;;51.90;2227.20;;;;;;5091968;28;20044;-77
2024/01/29 07:08:37;;;;;;;26.90;16.48;;;51.90;2227.20;;;;;;5078646;28;20036;-76
2024/01/29 07:11:03;;;;;;;31.75;14.98;;;51.80;2227.20;;;;;;5092095;28;20016;-76
2024/01/29 07:13:29;;;;;;;25.50;14.23;;;51.90;2227.20;;;;;;5091472;28;20067;-77
2024/01/29 07:15:55;;;;;;;30.40;16.08;;;51.90;2227.20;;;;;;5091349;28;20470;-77
2024/01/29 07:18:22;;;;;;;39.70;20.00;;;52.00;2227.20;;;;;;5086180;28;20402;-78
2024/01/29 07:20:49;;;;;;;28.90;14.93;;;51.80;2227.20;;;;;;5088881;28;20035;-77
2024/01/29 07:23:17;;;;;;;29.60;15.43;;;51.90;2227.20;;;;;;5087400;28;20071;-76
2024/01/29 07:25:43;;;;;;;28.70;16.00;;;51.80;2227.20;;;;;;5083473;28;20102;-77
2024/01/29 07:28:09;;;;;;;39.78;22.25;;;51.90;2227.20;;;;;;5096597;28;20032;-77
2024/01/29 07:30:34;;;;;;;51.00;27.92;;;51.90;2227.20;;;;;;5082110;28;20029;-77
2024/01/29 07:33:02;;;;;;;53.33;25.42;;;51.80;2227.20;;;;;;5083300;28;20035;-77
2024/01/29 07:35:28;;;;;;;46.80;29.83;;;51.80;2227.20;;;;;;5065559;28;20033;-77
2024/01/29 07:37:54;;;;;;;52.53;28.98;;;52.10;2227.20;;;;;;5073677;28;20040;-78
2024/01/29 07:40:21;;;;;;;49.50;30.13;;;77.00;2227.20;;;;;;5067111;28;20360;-78
2024/01/29 07:42:47;;;;;;;35.67;22.42;;;77.10;2227.20;;;;;;5073778;28;20102;-77
2024/01/29 07:45:14;;;;;;;38.88;23.20;;;77.20;2227.20;;;;;;5081433;28;20078;-78
2024/01/29 07:47:39;;;;;;;27.90;18.48;;;77.40;2227.20;;;;;;5073550;28;20036;-78
2024/01/29 07:50:05;;;;;;;29.05;17.00;;;77.50;2227.20;;;;;;5078413;28;20036;-78
2024/01/29 07:52:32;;;;;;;33.40;19.92;;;77.50;2227.20;;;;;;5071503;28;20472;-79
2024/01/29 07:54:57;;;;;;;31.25;19.75;;;77.60;2227.20;;;;;;5067410;28;20045;-79
2024/01/29 07:57:25;;;;;;;32.78;18.73;;;77.70;2227.20;;;;;;5081181;28;20086;-79
2024/01/29 07:59:51;;;;;;;31.67;20.33;;;102.50;2227.20;;;;;;5073397;28;20089;-78
2024/01/29 08:02:17;;;;;;;35.40;18.58;;;102.60;2227.20;;;;;;5090581;28;20028;-79
2024/01/29 08:04:43;;;;;;;35.55;20.50;;;102.50;2227.20;;;;;;5075449;28;20032;-78
2024/01/29 08:07:09;;;;;;;30.52;18.10;;;102.50;2227.20;;;;;;5074890;28;20048;-78
2024/01/29 08:09:35;;;;;;;32.00;16.55;;;102.60;2227.20;;;;;;5076376;28;20104;-79
2024/01/29 08:12:01;;;;;;;31.27;15.60;;;102.60;2227.20;;;;;;5079436;28;20520;-78
2024/01/29 08:14:48;;;;;;;28.02;17.55;;;102.50;2227.20;;;;;;5084060;28;20036;-78
2024/01/29 08:17:20;;;;;;;35.05;19.13;;;102.40;2227.20;;;;;;5090796;28;20493;-78
2024/01/29 08:19:49;;;;;;;25.85;16.58;;;102.50;2227.20;;;;;;5081454;28;20035;-78
2024/01/29 08:22:15;;;;;;;36.50;19.95;;;102.50;2227.20;;;;;;5086383;28;20028;-79
2024/01/29 08:24:41;;;;;;;40.08;25.25;;;102.60;2227.20;;;;;;5076059;28;20040;-78
2024/01/29 08:27:07;;;;;;;62.95;36.35;;;102.60;2227.20;;;;;;5072874;28;20479;-79
2024/01/29 08:29:36;;;;;;;43.08;28.90;;;102.70;2227.20;;;;;;5074372;28;20032;-75
2024/01/29 08:32:01;;;;;;;42.47;27.50;;;102.70;2227.20;;;;;;5075525;28;20028;-77
2024/01/29 08:34:29;;;;;;;45.17;28.83;;;102.90;2227.20;;;;;;5072839;28;20496;-78
2024/01/29 08:36:56;;;;;;;57.15;33.85;;;103.10;2227.20;;;;;;5075893;28;20493;-78
2024/01/29 08:39:22;;;;;;;94.90;57.42;;;128.00;2252.80;;;;;;5069628;28;20032;-77
2024/01/29 08:41:47;;;;;;;84.35;52.47;;;128.30;2252.80;;;;;;5068896;28;20037;-77
2024/01/29 08:44:13;;;;;;;59.92;32.92;;;128.40;2252.80;;;;;;5070839;28;20108;-77
2024/01/29 08:46:39;;;;;;;29.38;15.93;;;128.30;2252.80;;;;;;5078595;28;20025;-78
2024/01/29 08:49:05;;;;;;;29.02;17.45;;;128.40;2252.80;;;;;;5081883;28;20043;-80
2024/01/29 08:51:31;;;;;;;27.90;17.35;;;128.50;2252.80;;;;;;5082994;28;20051;-79
2024/01/29 08:53:58;;;;;;;35.17;20.33;;;128.70;2252.80;;;;;;5091365;28;20039;-79
2024/01/29 08:56:24;;;;;;;40.20;23.65;;;128.90;2252.80;;;;;;5104520;28;20083;-79
2024/01/29 08:58:50;;;;;;;46.78;23.65;;;153.80;2252.80;;;;;;5093362;28;20087;-79
2024/01/29 09:01:16;;;;;;;83.28;53.13;;;154.00;2252.80;;;;;;5075831;28;20344;-79
2024/01/29 09:03:42;;;;;;;79.07;53.80;;;153.80;2252.80;;;;;;5087772;22;20037;-78
2024/01/29 09:06:07;;;;;;;80.80;48.67;;;153.80;2252.80;;;;;;5066641;22;20128;-81
2024/01/29 09:08:33;;;;;;;60.42;36.53;;;154.10;2252.80;;;;;;5058378;28;20028;-78
2024/01/29 09:10:59;;;;;;;46.45;30.25;;;154.20;2252.80;;;;;;5066417;28;20070;-79
2024/01/29 09:13:26;;;;;;;44.70;26.58;;;154.20;2252.80;;;;;;5073050;28;20147;-79
2024/01/29 09:15:51;;;;;;;42.97;31.05;;;154.50;2252.80;;;;;;5065435;28;20047;-78
2024/01/29 09:18:17;;;;;;;66.30;44.75;;;154.50;2252.80;;;;;;5076246;28;20100;-79
2024/01/29 09:20:55;;;;;;;60.67;33.35;;;154.40;2252.80;;;;;;5074297;28;20052;-78
2024/01/29 09:23:21;;;;;;;48.72;36.83;;;154.40;2252.80;;;;;;5042936;28;20052;-78
2024/01/29 09:25:47;;;;;;;59.65;41.85;;;154.40;2252.80;;;;;;5070606;28;20466;-79
2024/01/29 09:28:13;;;;;;;42.70;27.85;;;154.50;2252.80;;;;;;5077900;28;20017;-79
2024/01/29 09:30:39;;;;;;;39.97;22.05;;;154.50;2252.80;;;;;;5062027;28;20037;-79
2024/01/29 09:33:06;;;;;;;25.25;19.40;;;179.20;2252.80;;;;;;5108256;22;20048;-80
2024/01/29 09:35:32;;;;;;;27.90;16.83;;;179.40;2252.80;;;;;;5114882;28;20016;-79
2024/01/29 09:37:58;;;;;;;24.45;13.57;;;179.60;2252.80;;;;;;5093665;28;20031;-78
2024/01/29 09:40:23;;;;;;;52.10;37.50;;;179.70;2252.80;;;;;;5098410;28;20050;-79
2024/01/29 09:42:53;;;;;;;33.65;22.52;;;179.60;2252.80;;;;;;5094511;28;20530;-79
2024/01/29 09:45:27;;;;;;;24.75;16.83;;;179.80;2252.80;;;;;;5101951;28;20016;-78
2024/01/29 09:47:55;;;;;;;32.05;19.58;;;180.10;2252.80;;;;;;5106624;28;20011;-79
2024/01/29 09:50:23;;;;;;;120.32;74.15;;;204.90;2252.80;;;;;;5103959;28;20024;-79
2024/01/29 09:52:51;;;;;;;69.10;45.90;;;180.10;2252.80;;;;;;5085098;28;20024;-79
2024/01/29 09:55:17;;;;;;;72.45;45.25;;;179.40;2252.80;;;;;;5085006;28;20109;-78
2024/01/29 09:57:44;;;;;;;78.55;51.72;;;179.40;2252.80;;;;;;5082202;28;20532;-79
2024/01/29 10:00:16;;;;;;;70.50;42.28;;;179.20;2252.80;;;;;;5085688;28;20052;-79
2024/01/29 10:02:44;;;;;;;83.68;51.58;;;154.50;2252.80;;;;;;5100556;28;20056;-79
2024/01/29 10:05:11;;;;;;;89.28;53.67;;;179.20;2252.80;;;;;;5096813;28;20024;-79
2024/01/29 10:07:43;;;;;;;81.97;53.08;;;154.50;2252.80;;;;;;5108788;28;20031;-80
2024/01/29 10:10:10;;;;;;;79.60;51.90;;;179.30;2252.80;;;;;;5137882;22;20047;-79
2024/01/29 10:12:38;;;;;;;77.45;50.63;;;179.70;2252.80;;;;;;5140473;27;20031;-79
2024/01/29 10:15:24;;;;;;;106.53;64.13;;;180.10;2252.80;;;;;;5111058;27;20062;-79
2024/01/29 10:17:50;;;;;;;182.82;118.90;;;179.70;2252.80;;;;;;5105382;27;20051;-78
2024/01/29 10:20:20;;;;;;;140.88;99.47;;;179.70;2252.80;;;;;;5116264;22;20044;-76
2024/01/29 10:22:46;;;;;;;145.07;96.88;;;179.90;2252.80;;;;;;5107647;28;20032;-76
2024/01/29 10:25:14;;;;;;;207.70;130.63;;;204.80;2252.80;;;;;;5080624;28;20060;-77
2024/01/29 10:27:40;;;;;;;157.68;99.38;;;204.80;2252.80;;;;;;5110491;28;20054;-76
2024/01/29 10:30:07;;;;;;;153.93;99.05;;;180.10;2252.80;;;;;;5099200;28;20111;-78
2024/01/29 10:32:34;;;;;;;144.25;97.18;;;180.10;2252.80;;;;;;5117939;28;20024;-79
2024/01/29 10:35:00;;;;;;;162.25;108.05;;;204.80;2252.80;;;;;;5118995;28;20028;-77
2024/01/29 10:37:27;;;;;;;120.78;76.85;;;204.80;2252.80;;;;;;5116265;28;20075;-78
2024/01/29 10:40:00;;;;;;;120.00;83.45;;;205.30;2252.80;;;;;;5116949;28;20088;-78
2024/01/29 10:42:48;;;;;;;130.88;85.85;;;204.80;2252.80;;;;;;5111899;28;20050;-78
2024/01/29 10:45:18;;;;;;;146.77;93.22;;;205.00;2252.80;;;;;;5091069;28;20028;-77
2024/01/29 10:47:49;;;;;;;132.00;85.22;;;205.00;2252.80;;;;;;5083547;28;20043;-78
2024/01/29 10:50:19;;;;;;;135.90;91.38;;;205.30;2252.80;;;;;;5101008;28;20089;-77
2024/01/29 10:52:47;;;;;;;137.85;93.28;;;205.50;2252.80;;;;;;5091975;28;20070;-76
2024/01/29 10:55:16;;;;;;;147.18;102.05;;;205.70;2252.80;;;;;;5108983;28;20023;-78
2024/01/29 10:57:47;;;;;;;300.45;194.30;;;230.80;2252.80;;;;;;5106714;28;20028;-77
2024/01/29 11:00:18;;;;;;;115.90;77.35;;;205.60;2252.80;;;;;;5093477;28;20020;-78
2024/01/29 11:02:45;;;;;;;116.30;76.65;;;205.30;2252.80;;;;;;5093571;28;20103;-76
2024/01/29 11:05:13;;;;;;;162.95;108.68;;;205.30;2252.80;;;;;;5093743;28;20374;-77
2024/01/29 11:07:42;;;;;;;158.73;107.32;;;205.10;2252.80;;;;;;5072406;28;20434;-77
